Time;durP1;ratioP1;P1;durP2;ratioP2;P2;SDS_P1;SDS_P2;PMS_P1;PMS_P2;Temp;Humidity;BMP_temperature;BMP_pressure;BME280_temperature;BME280_humidity;BME280_pressure;Samples;Min_cycle;Max_cycle;Signal;HPM_P1;HPM_P2
2021/08/27 00:00:14;;;;;;;5.78;3.30;;;12.60;99.90;;;;;;1911910;75;21074;-78
2021/08/27 00:02:40;;;;;;;4.25;2.85;;;12.60;99.90;;;;;;1912004;75;21078;-78
2021/08/27 00:05:06;;;;;;;3.87;2.80;;;12.70;99.90;;;;;;1911937;75;21011;-78
2021/08/27 00:07:32;;;;;;;4.95;3.40;;;12.70;99.90;;;;;;1911885;75;21474;-78
2021/08/27 00:09:58;;;;;;;5.12;2.62;;;12.70;99.90;;;;;;1912056;75;21458;-79
2021/08/27 00:12:24;;;;;;;3.37;2.95;;;12.80;99.90;;;;;;1911954;75;21553;-79
2021/08/27 00:14:50;;;;;;;6.42;2.85;;;12.90;99.90;;;;;;1911947;75;21451;-79
2021/08/27 00:17:16;;;;;;;5.33;3.00;;;13.00;99.90;;;;;;1911954;75;21484;-79
2021/08/27 00:19:43;;;;;;;6.00;3.08;;;13.00;99.90;;;;;;1912004;75;21408;-78
2021/08/27 00:22:09;;;;;;;5.22;3.35;;;13.20;99.90;;;;;;1911979;75;21074;-78
2021/08/27 00:24:35;;;;;;;6.47;3.70;;;13.10;99.90;;;;;;1911926;75;21043;-79
2021/08/27 00:27:01;;;;;;;6.50;3.83;;;13.10;99.90;;;;;;1911902;75;21126;-78
2021/08/27 00:29:27;;;;;;;16.57;3.47;;;13.10;99.90;;;;;;1912012;75;21172;-78
2021/08/27 00:31:53;;;;;;;4.67;3.40;;;13.20;99.90;;;;;;1911914;75;21112;-78
2021/08/27 00:34:19;;;;;;;3.95;2.77;;;13.20;99.90;;;;;;1911995;75;21145;-79
2021/08/27 00:36:46;;;;;;;5.62;3.17;;;13.40;99.90;;;;;;1911929;75;21069;-79
2021/08/27 00:39:12;;;;;;;5.75;3.75;;;13.30;99.90;;;;;;1911949;75;21124;-78
2021/08/27 00:41:38;;;;;;;5.45;3.40;;;13.40;99.90;;;;;;1911995;75;21241;-78
2021/08/27 00:44:04;;;;;;;4.80;3.22;;;13.50;99.90;;;;;;1911853;75;21063;-79
2021/08/27 00:46:30;;;;;;;3.80;2.80;;;13.50;99.90;;;;;;1911928;75;21144;-79
2021/08/27 00:48:56;;;;;;;7.95;3.25;;;13.50;99.90;;;;;;1911915;75;21156;-79
2021/08/27 00:51:22;;;;;;;4.22;2.90;;;13.60;99.90;;;;;;1911920;75;21078;-79
2021/08/27 00:53:48;;;;;;;6.12;3.00;;;13.60;99.90;;;;;;1912022;75;21121;-78
2021/08/27 00:56:15;;;;;;;3.83;2.80;;;13.60;99.90;;;;;;1911929;75;21114;-79
2021/08/27 00:58:41;;;;;;;9.50;3.08;;;13.60;99.90;;;;;;1911926;75;21062;-79
2021/08/27 01:01:07;;;;;;;4.55;3.05;;;13.60;99.90;;;;;;1912012;75;21075;-79
2021/08/27 01:03:33;;;;;;;5.60;3.02;;;13.60;99.90;;;;;;1911805;75;21070;-78
2021/08/27 01:05:59;;;;;;;6.75;3.27;;;13.70;99.90;;;;;;1912037;75;21140;-78
2021/08/27 01:08:25;;;;;;;6.12;2.80;;;13.80;99.90;;;;;;1911803;75;21136;-78
2021/08/27 01:10:51;;;;;;;8.03;2.42;;;13.80;99.90;;;;;;1911904;75;21070;-78
2021/08/27 01:13:17;;;;;;;3.72;2.65;;;13.80;99.90;;;;;;1912056;75;21143;-79
2021/08/27 01:15:44;;;;;;;5.12;2.67;;;13.80;99.90;;;;;;1911878;75;21011;-79
2021/08/27 01:18:10;;;;;;;4.55;2.80;;;13.80;99.90;;;;;;1911917;75;21074;-79
2021/08/27 01:20:36;;;;;;;3.65;2.70;;;13.80;99.90;;;;;;1911942;75;21152;-79
2021/08/27 01:23:02;;;;;;;3.90;2.77;;;13.70;99.90;;;;;;1912127;75;21233;-76
2021/08/27 01:25:28;;;;;;;6.20;2.85;;;13.90;99.90;;;;;;1911975;75;21082;-77
2021/08/27 01:27:54;;;;;;;8.48;3.45;;;13.90;99.90;;;;;;1911962;75;21051;-77
2021/08/27 01:30:20;;;;;;;7.72;3.25;;;13.90;99.90;;;;;;1911974;75;21082;-77
2021/08/27 01:32:46;;;;;;;6.62;2.70;;;13.80;99.90;;;;;;1911896;75;21090;-78
2021/08/27 01:35:13;;;;;;;4.22;2.62;;;13.80;99.90;;;;;;1911924;75;21039;-78
2021/08/27 01:37:39;;;;;;;4.53;2.52;;;13.70;99.90;;;;;;1911945;75;21117;-78
2021/08/27 01:40:05;;;;;;;4.12;2.62;;;13.70;99.90;;;;;;1911915;75;21495;-78
2021/08/27 01:42:31;;;;;;;3.30;2.60;;;13.70;99.90;;;;;;1911942;75;21438;-78
2021/08/27 01:44:57;;;;;;;6.10;3.00;;;13.70;99.90;;;;;;1911939;75;21440;-78
2021/08/27 01:47:23;;;;;;;4.37;2.62;;;13.70;99.90;;;;;;1912135;75;21525;-79
2021/08/27 01:49:49;;;;;;;5.10;3.00;;;13.60;99.90;;;;;;1911937;75;21592;-78
2021/08/27 01:52:15;;;;;;;5.05;2.85;;;13.60;99.90;;;;;;1911968;75;21475;-79
2021/08/27 01:54:42;;;;;;;4.75;2.90;;;13.50;99.90;;;;;;1913255;75;21177;-78
2021/08/27 01:57:08;;;;;;;8.95;3.40;;;13.60;99.90;;;;;;1913922;75;21074;-77
2021/08/27 01:59:34;;;;;;;10.72;3.77;;;13.50;99.90;;;;;;1913657;75;21136;-78
2021/08/27 02:02:00;;;;;;;7.03;2.55;;;13.50;99.90;;;;;;1911922;75;21071;-77
2021/08/27 02:04:26;;;;;;;5.15;2.85;;;13.50;99.90;;;;;;1911040;74;21046;-77
2021/08/27 02:06:52;;;;;;;3.87;3.12;;;13.40;99.90;;;;;;1911950;75;21152;-77
2021/08/27 02:09:18;;;;;;;4.60;3.35;;;13.40;99.90;;;;;;1911818;75;21117;-77
2021/08/27 02:11:44;;;;;;;9.58;3.80;;;13.40;99.90;;;;;;1912016;75;21063;-78
2021/08/27 02:14:10;;;;;;;5.30;2.75;;;13.40;99.90;;;;;;1911831;75;21039;-77
2021/08/27 02:16:37;;;;;;;4.45;3.55;;;13.50;99.90;;;;;;1916366;75;21094;-77
2021/08/27 02:19:04;;;;;;;5.80;3.17;;;13.50;99.90;;;;;;1914888;75;21071;-77
2021/08/27 02:21:30;;;;;;;8.40;3.60;;;13.50;99.90;;;;;;1911962;75;21502;-77
2021/08/27 02:23:56;;;;;;;4.75;3.15;;;13.50;99.90;;;;;;1911770;75;21467;-77
2021/08/27 02:26:22;;;;;;;9.55;3.02;;;13.50;99.90;;;;;;1912015;75;21078;-78
2021/08/27 02:28:48;;;;;;;6.25;3.50;;;13.50;99.90;;;;;;1911796;75;21129;-77
2021/08/27 02:31:14;;;;;;;5.05;2.90;;;13.50;99.90;;;;;;1911972;75;21070;-77
2021/08/27 02:33:40;;;;;;;10.82;3.37;;;13.50;99.90;;;;;;1911804;75;21047;-78
2021/08/27 02:36:07;;;;;;;5.37;3.00;;;13.60;99.90;;;;;;1912002;75;21151;-76
2021/08/27 02:38:33;;;;;;;4.28;3.10;;;13.50;99.90;;;;;;1911876;75;21152;-77
2021/08/27 02:40:59;;;;;;;8.53;3.15;;;13.50;99.90;;;;;;1911920;75;21195;-78
2021/08/27 02:43:25;;;;;;;5.03;3.50;;;13.60;99.90;;;;;;1911852;75;21051;-77
2021/08/27 02:45:51;;;;;;;5.47;3.17;;;13.60;99.90;;;;;;1911906;75;21071;-77
2021/08/27 02:48:17;;;;;;;4.55;3.45;;;13.60;99.90;;;;;;1911865;75;21071;-77
2021/08/27 02:50:43;;;;;;;6.47;3.98;;;13.60;99.90;;;;;;1911928;75;21075;-78
2021/08/27 02:53:09;;;;;;;11.38;3.40;;;13.60;99.90;;;;;;1911983;75;21051;-77
2021/08/27 02:55:36;;;;;;;9.90;3.50;;;13.60;99.90;;;;;;1911994;75;21160;-77
2021/08/27 02:58:02;;;;;;;5.33;3.40;;;13.50;99.90;;;;;;1911863;75;21090;-77
2021/08/27 03:00:28;;;;;;;7.60;3.20;;;13.50;99.90;;;;;;1912011;75;21121;-78
2021/08/27 03:02:54;;;;;;;4.37;3.33;;;13.60;99.90;;;;;;1912002;75;21478;-78
2021/08/27 03:05:20;;;;;;;5.60;3.58;;;13.60;99.90;;;;;;1911924;75;21502;-77
2021/08/27 03:07:46;;;;;;;4.08;2.70;;;13.60;99.90;;;;;;1911920;75;21474;-77
2021/08/27 03:10:12;;;;;;;4.90;3.10;;;13.60;99.90;;;;;;1912066;75;21491;-77
2021/08/27 03:12:38;;;;;;;6.92;2.98;;;13.60;99.90;;;;;;1911875;75;21499;-77
2021/08/27 03:15:05;;;;;;;4.15;3.02;;;13.60;99.90;;;;;;1912083;75;21177;-78
2021/08/27 03:17:31;;;;;;;6.10;3.05;;;13.60;99.90;;;;;;1911895;75;21084;-78
2021/08/27 03:19:57;;;;;;;6.28;3.72;;;13.60;99.90;;;;;;1911978;75;21079;-77
2021/08/27 03:22:23;;;;;;;5.90;3.27;;;13.60;99.90;;;;;;1912014;75;21074;-78
2021/08/27 03:24:50;;;;;;;5.00;3.35;;;13.60;99.90;;;;;;1911968;75;21511;-78
2021/08/27 03:27:16;;;;;;;4.22;3.02;;;13.60;99.90;;;;;;1912016;75;21082;-78
2021/08/27 03:29:42;;;;;;;4.35;2.95;;;13.50;99.90;;;;;;1912007;75;21047;-78
2021/08/27 03:32:08;;;;;;;5.15;3.33;;;13.50;99.90;;;;;;1912016;75;21125;-77
2021/08/27 03:34:35;;;;;;;5.35;3.47;;;13.60;99.90;;;;;;1911992;75;21156;-77
2021/08/27 03:37:01;;;;;;;6.00;3.33;;;13.60;99.90;;;;;;1911971;75;21082;-79
2021/08/27 03:39:27;;;;;;;5.87;2.95;;;13.60;99.90;;;;;;1912009;75;21051;-78
2021/08/27 03:41:53;;;;;;;2.95;2.72;;;13.60;99.90;;;;;;1911953;75;21074;-78
2021/08/27 03:44:19;;;;;;;5.17;3.17;;;13.60;99.90;;;;;;1911885;75;21082;-78
2021/08/27 03:46:45;;;;;;;4.90;3.37;;;13.60;99.90;;;;;;1911893;75;21051;-77
2021/08/27 03:49:12;;;;;;;3.67;2.67;;;13.60;99.90;;;;;;1911957;75;21051;-78
2021/08/27 03:51:38;;;;;;;4.33;3.00;;;13.60;99.90;;;;;;1911901;75;21133;-77
2021/08/27 03:54:04;;;;;;;8.63;3.87;;;13.60;99.90;;;;;;1911994;75;21148;-78
2021/08/27 03:56:30;;;;;;;7.20;3.15;;;13.60;99.90;;;;;;1913565;75;21156;-78
2021/08/27 03:58:57;;;;;;;9.43;3.22;;;13.50;99.90;;;;;;1911987;75;21071;-77
2021/08/27 04:01:23;;;;;;;6.40;4.03;;;13.40;99.90;;;;;;1911993;75;21176;-78
2021/08/27 04:03:49;;;;;;;6.85;3.72;;;13.40;99.90;;;;;;1911753;75;21126;-78
2021/08/27 04:06:15;;;;;;;9.38;4.12;;;13.50;99.90;;;;;;1911987;75;21070;-77
2021/08/27 04:08:41;;;;;;;6.47;4.58;;;13.50;99.90;;;;;;1911836;74;21160;-78
2021/08/27 04:11:07;;;;;;;7.03;4.45;;;13.50;99.90;;;;;;1911900;75;21152;-78
2021/08/27 04:13:33;;;;;;;6.47;3.80;;;13.60;99.90;;;;;;1911860;75;21074;-78
2021/08/27 04:15:59;;;;;;;8.00;3.90;;;13.60;99.90;;;;;;1911829;75;21148;-79
2021/08/27 04:18:25;;;;;;;5.60;3.45;;;13.60;99.90;;;;;;1911979;75;21147;-79
2021/08/27 04:20:52;;;;;;;5.20;3.58;;;13.60;99.90;;;;;;1911817;75;21042;-79
2021/08/27 04:23:18;;;;;;;6.80;3.80;;;13.60;99.90;;;;;;1913531;75;21168;-78
2021/08/27 04:25:44;;;;;;;7.45;3.00;;;13.60;99.90;;;;;;1911830;75;21131;-79
2021/08/27 04:28:10;;;;;;;7.37;3.35;;;13.60;99.90;;;;;;1911990;75;21043;-78
2021/08/27 04:30:36;;;;;;;5.90;3.33;;;13.60;99.90;;;;;;1913571;75;21167;-78
2021/08/27 04:33:02;;;;;;;6.60;3.58;;;13.50;99.90;;;;;;1911973;75;21184;-78
2021/08/27 04:35:28;;;;;;;7.12;3.42;;;13.60;99.90;;;;;;1911861;75;21550;-78
2021/08/27 04:37:54;;;;;;;7.55;3.87;;;13.60;99.90;;;;;;1911948;75;21420;-78
2021/08/27 04:40:21;;;;;;;5.90;3.90;;;13.60;99.90;;;;;;1912045;75;21431;-78
2021/08/27 04:42:47;;;;;;;10.75;5.22;;;13.60;99.90;;;;;;1911834;75;21487;-78
2021/08/27 04:45:13;;;;;;;8.18;5.22;;;13.60;99.90;;;;;;1911985;75;21078;-78
2021/08/27 04:47:39;;;;;;;9.63;5.75;;;13.60;99.90;;;;;;1912076;75;21066;-78
2021/08/27 04:50:06;;;;;;;6.87;5.50;;;13.50;99.90;;;;;;1912080;75;21036;-78
2021/08/27 04:52:32;;;;;;;7.08;5.20;;;13.60;99.90;;;;;;1912166;75;21488;-78
2021/08/27 04:54:58;;;;;;;6.87;5.00;;;13.60;99.90;;;;;;1911782;75;21734;-78
2021/08/27 04:57:24;;;;;;;8.35;4.60;;;13.60;99.90;;;;;;1911812;75;21494;-82
2021/08/27 04:59:50;;;;;;;11.22;4.83;;;13.50;99.90;;;;;;1912044;75;21479;-78
2021/08/27 05:02:16;;;;;;;7.42;5.17;;;13.50;99.90;;;;;;1911966;75;21467;-78
2021/08/27 05:04:42;;;;;;;9.48;4.37;;;13.50;99.90;;;;;;1911999;75;21467;-78
2021/08/27 05:07:08;;;;;;;7.37;4.92;;;13.50;99.90;;;;;;1911837;75;21114;-78
2021/08/27 05:09:35;;;;;;;8.65;4.47;;;13.50;99.90;;;;;;1912032;75;21098;-78
2021/08/27 05:12:01;;;;;;;6.75;4.12;;;13.50;99.90;;;;;;1911873;75;21144;-78
2021/08/27 05:14:27;;;;;;;6.37;4.25;;;13.50;99.90;;;;;;1912169;75;21062;-77
2021/08/27 05:16:53;;;;;;;7.90;4.28;;;13.50;99.90;;;;;;1911895;75;21067;-79
2021/08/27 05:19:19;;;;;;;9.08;4.83;;;13.50;99.90;;;;;;1912077;75;21075;-77
2021/08/27 05:21:45;;;;;;;5.55;3.50;;;13.50;99.90;;;;;;1912003;75;21148;-79
2021/08/27 05:24:11;;;;;;;5.33;3.85;;;13.50;99.90;;;;;;1911973;75;21140;-77
2021/08/27 05:26:37;;;;;;;5.97;4.00;;;13.50;99.90;;;;;;1911860;75;21062;-78
2021/08/27 05:29:04;;;;;;;5.87;3.70;;;13.60;99.90;;;;;;1912001;75;21039;-78
2021/08/27 05:31:30;;;;;;;5.80;4.37;;;13.60;99.90;;;;;;1912109;75;21074;-77
2021/08/27 05:33:56;;;;;;;7.08;4.33;;;13.60;99.90;;;;;;1912030;75;21067;-78
2021/08/27 05:36:22;;;;;;;7.70;4.55;;;13.70;99.90;;;;;;1912102;75;21137;-78
2021/08/27 05:38:48;;;;;;;6.12;4.10;;;13.70;99.90;;;;;;1912037;75;21036;-78
2021/08/27 05:41:14;;;;;;;6.30;4.30;;;13.80;99.90;;;;;;1911950;75;21128;-78
2021/08/27 05:43:40;;;;;;;6.25;4.10;;;13.80;99.90;;;;;;1911900;75;21070;-79
2021/08/27 05:46:06;;;;;;;7.65;4.40;;;13.90;99.90;;;;;;1911926;75;21173;-78
2021/08/27 05:48:33;;;;;;;8.85;4.60;;;13.90;99.90;;;;;;1911866;75;21011;-78
2021/08/27 05:50:59;;;;;;;6.03;4.28;;;14.00;99.90;;;;;;1911944;75;21179;-77
2021/08/27 05:53:25;;;;;;;6.03;4.50;;;14.10;99.90;;;;;;1911833;75;21054;-78
2021/08/27 05:55:51;;;;;;;12.25;4.35;;;14.10;99.90;;;;;;1912045;75;21079;-78
2021/08/27 05:58:17;;;;;;;7.40;5.22;;;14.10;99.90;;;;;;1911924;75;21152;-77
2021/08/27 06:00:43;;;;;;;10.10;5.00;;;14.20;99.90;;;;;;1912030;75;21478;-77
2021/08/27 06:03:09;;;;;;;10.35;5.30;;;14.20;99.90;;;;;;1911943;75;21559;-77
2021/08/27 06:05:35;;;;;;;6.65;4.47;;;14.20;99.90;;;;;;1911929;75;21419;-77
2021/08/27 06:08:01;;;;;;;7.85;5.22;;;14.30;99.90;;;;;;1911936;75;21477;-77
2021/08/27 06:10:28;;;;;;;10.85;5.50;;;14.30;99.90;;;;;;1912048;75;21506;-76
2021/08/27 06:12:54;;;;;;;10.90;4.87;;;14.30;99.90;;;;;;1911958;75;21580;-76
2021/08/27 06:15:20;;;;;;;7.12;5.20;;;14.40;99.90;;;;;;1911895;75;21435;-78
2021/08/27 06:17:46;;;;;;;7.10;4.83;;;14.40;99.90;;;;;;1911823;75;21047;-77
2021/08/27 06:20:12;;;;;;;5.85;4.60;;;14.40;99.90;;;;;;1911966;75;21120;-78
2021/08/27 06:22:38;;;;;;;8.40;5.08;;;14.40;99.90;;;;;;1911850;75;21133;-78
2021/08/27 06:25:04;;;;;;;8.95;5.70;;;14.40;99.90;;;;;;1911897;75;21019;-78
2021/08/27 06:27:30;;;;;;;7.87;4.55;;;14.20;99.90;;;;;;1911975;75;21070;-78
2021/08/27 06:29:57;;;;;;;7.00;4.72;;;14.30;99.90;;;;;;1911835;75;21148;-78
2021/08/27 06:32:23;;;;;;;8.70;4.78;;;14.30;99.90;;;;;;1912103;75;21066;-77
2021/08/27 06:34:49;;;;;;;10.60;4.30;;;14.40;99.90;;;;;;1913260;75;21217;-78
2021/08/27 06:37:15;;;;;;;5.60;3.77;;;14.50;99.90;;;;;;1913215;75;21356;-78
2021/08/27 06:39:41;;;;;;;13.85;3.72;;;14.50;99.90;;;;;;1913042;75;21522;-78
2021/08/27 06:42:07;;;;;;;5.03;4.25;;;14.50;99.90;;;;;;1912825;75;21034;-77
2021/08/27 06:44:33;;;;;;;7.90;3.90;;;14.60;99.90;;;;;;1912353;75;21132;-78
2021/08/27 06:47:00;;;;;;;5.28;3.75;;;14.80;99.90;;;;;;1912484;75;21040;-78
2021/08/27 06:49:26;;;;;;;5.78;3.87;;;15.00;99.90;;;;;;1912902;75;21035;-78
2021/08/27 06:51:52;;;;;;;5.30;3.72;;;15.30;99.90;;;;;;1913086;75;21078;-77
2021/08/27 06:54:18;;;;;;;4.67;3.52;;;15.30;99.90;;;;;;1916256;75;21082;-78
2021/08/27 06:56:44;;;;;;;5.53;3.08;;;15.30;99.90;;;;;;1912784;75;21149;-77
2021/08/27 06:59:10;;;;;;;6.78;2.92;;;15.40;99.90;;;;;;1912404;74;21055;-78
2021/08/27 07:01:36;;;;;;;4.72;2.80;;;15.50;99.90;;;;;;1913771;74;21035;-76
2021/08/27 07:04:03;;;;;;;9.75;2.90;;;15.50;99.90;;;;;;1911019;75;21115;-77
2021/08/27 07:06:29;;;;;;;6.00;2.75;;;15.60;99.90;;;;;;1912369;74;21211;-77
2021/08/27 07:08:55;;;;;;;5.15;2.50;;;15.80;99.90;;;;;;1912554;75;21040;-76
2021/08/27 07:11:21;;;;;;;3.70;2.40;;;16.00;99.90;;;;;;1912509;75;21222;-77
2021/08/27 07:13:47;;;;;;;5.83;2.52;;;16.00;99.90;;;;;;1914745;75;21157;-75
2021/08/27 07:16:13;;;;;;;8.70;2.70;;;16.10;99.90;;;;;;1915473;75;21486;-77
2021/08/27 07:18:43;;;;;;;4.67;2.40;;;16.10;99.90;;;;;;1914405;75;21122;-76
2021/08/27 07:21:09;;;;;;;2.80;2.50;;;16.10;99.90;;;;;;1913550;75;21118;-76
2021/08/27 07:23:36;;;;;;;6.10;2.35;;;16.00;99.90;;;;;;1919665;75;21047;-75
2021/08/27 07:26:02;;;;;;;5.03;2.33;;;16.10;99.90;;;;;;1912199;75;21148;-76
2021/08/27 07:28:28;;;;;;;6.17;2.30;;;16.10;99.90;;;;;;1912104;75;21144;-77
2021/08/27 07:30:54;;;;;;;5.33;2.50;;;15.90;99.90;;;;;;1912307;75;21140;-76
2021/08/27 07:33:20;;;;;;;4.17;2.27;;;15.80;99.90;;;;;;1912203;75;21043;-75
2021/08/27 07:35:49;;;;;;;3.40;2.33;;;16.00;99.90;;;;;;1912139;75;21116;-76
2021/08/27 07:38:14;;;;;;;4.05;2.55;;;15.80;99.90;;;;;;1911719;73;21475;-76
2021/08/27 07:40:40;;;;;;;3.92;2.35;;;15.70;99.90;;;;;;1912238;75;21451;-76
2021/08/27 07:43:06;;;;;;;5.35;2.75;;;15.60;99.90;;;;;;1912007;75;21458;-76
2021/08/27 07:45:32;;;;;;;4.65;2.37;;;15.70;99.90;;;;;;1912172;75;21595;-76
2021/08/27 07:47:59;;;;;;;7.87;2.45;;;15.90;99.90;;;;;;1912007;75;21302;-77
2021/08/27 07:50:25;;;;;;;5.10;2.47;;;16.30;99.90;;;;;;1911890;75;21046;-78
2021/08/27 07:52:51;;;;;;;4.25;1.92;;;16.40;99.90;;;;;;1911978;75;21066;-78
2021/08/27 07:55:21;;;;;;;2.60;1.70;;;16.60;99.90;;;;;;1911971;75;21039;-78
2021/08/27 07:57:46;;;;;;;2.77;1.60;;;17.10;99.90;;;;;;1912083;73;21078;-79
2021/08/27 08:00:13;;;;;;;2.37;1.52;;;17.20;99.90;;;;;;1912216;75;21141;-79
2021/08/27 08:02:39;;;;;;;3.12;1.67;;;17.10;99.90;;;;;;1911972;75;21070;-78
2021/08/27 08:05:05;;;;;;;2.10;1.60;;;17.00;99.90;;;;;;1911929;75;21074;-78
2021/08/27 08:07:31;;;;;;;2.85;1.67;;;17.00;99.90;;;;;;1912036;75;21066;-78
2021/08/27 08:09:57;;;;;;;3.52;1.70;;;17.10;99.90;;;;;;1911842;75;21075;-78
2021/08/27 08:12:25;;;;;;;7.58;1.60;;;16.70;99.90;;;;;;1912061;75;21058;-78
2021/08/27 08:14:51;;;;;;;2.67;1.10;;;16.40;99.90;;;;;;1911861;75;21160;-78
2021/08/27 08:17:17;;;;;;;3.55;1.25;;;16.20;99.90;;;;;;1912007;75;21062;-78
2021/08/27 08:19:43;;;;;;;1.60;1.05;;;16.00;99.90;;;;;;1911981;75;21058;-78
2021/08/27 08:22:09;;;;;;;1.57;0.90;;;16.00;99.90;;;;;;1911973;75;21102;-79
2021/08/27 08:24:35;;;;;;;3.92;1.40;;;16.10;99.90;;;;;;1911948;75;21152;-79
2021/08/27 08:27:02;;;;;;;9.28;1.20;;;16.80;99.90;;;;;;1912108;75;21059;-78
2021/08/27 08:29:28;;;;;;;4.92;1.30;;;17.50;99.90;;;;;;1911934;75;21039;-78
2021/08/27 08:31:58;;;;;;;10.45;1.20;;;17.90;99.90;;;;;;1912147;75;21179;-77
2021/08/27 08:34:22;;;;;;;3.87;1.17;;;18.20;99.90;;;;;;1910969;75;21059;-79
2021/08/27 08:36:48;;;;;;;3.37;1.40;;;17.90;99.90;;;;;;1911842;75;21062;-80
2021/08/27 08:39:14;;;;;;;6.12;1.50;;;18.00;99.90;;;;;;1911984;75;21039;-80
2021/08/27 08:41:40;;;;;;;3.70;1.40;;;18.10;99.90;;;;;;1911923;75;21070;-78
2021/08/27 08:44:06;;;;;;;3.75;1.10;;;18.20;99.90;;;;;;1912110;75;21082;-78
2021/08/27 08:46:32;;;;;;;1.60;1.10;;;18.40;99.90;;;;;;1912134;75;21148;-79
2021/08/27 08:48:58;;;;;;;5.47;1.30;;;18.30;99.90;;;;;;1912009;75;21148;-79
2021/08/27 08:51:25;;;;;;;3.25;1.20;;;18.30;99.90;;;;;;1912102;75;21447;-79
2021/08/27 08:53:51;;;;;;;4.30;2.22;;;18.20;99.90;;;;;;1911871;75;21507;-79
2021/08/27 08:56:17;;;;;;;5.60;1.32;;;17.90;99.90;;;;;;1912054;75;21439;-79
2021/08/27 08:58:43;;;;;;;3.40;1.45;;;17.90;99.90;;;;;;1912085;75;21125;-79
2021/08/27 09:01:18;;;;;;;3.87;1.82;;;17.50;99.90;;;;;;1911851;75;21114;-79
2021/08/27 09:03:37;;;;;;;6.17;1.98;;;17.70;99.90;;;;;;1909637;75;21432;-79
2021/08/27 09:06:03;;;;;;;2.98;1.30;;;18.50;99.90;;;;;;1911868;75;21477;-79
2021/08/27 09:08:30;;;;;;;2.62;1.20;;;18.40;99.90;;;;;;1912002;75;21117;-79
2021/08/27 09:10:56;;;;;;;2.45;1.17;;;18.80;99.90;;;;;;1911914;75;21069;-79
2021/08/27 09:13:22;;;;;;;9.90;1.30;;;18.80;99.90;;;;;;1912180;75;21035;-78
2021/08/27 09:15:48;;;;;;;8.10;1.32;;;19.40;99.90;;;;;;1912554;75;21116;-78
2021/08/27 09:18:14;;;;;;;1.80;0.90;;;19.40;99.90;;;;;;1912503;75;21066;-79
2021/08/27 09:20:40;;;;;;;3.33;1.12;;;19.10;99.90;;;;;;1912521;75;21153;-79
2021/08/27 09:23:07;;;;;;;2.60;1.22;;;19.30;99.90;;;;;;1912537;75;21136;-78
2021/08/27 09:25:33;;;;;;;1.67;0.80;;;19.50;99.90;;;;;;1912553;75;21078;-79
2021/08/27 09:27:59;;;;;;;2.55;1.02;;;19.10;99.90;;;;;;1912616;75;21071;-79
2021/08/27 09:30:25;;;;;;;2.22;1.10;;;18.30;99.90;;;;;;1912342;75;21120;-79
2021/08/27 09:32:51;;;;;;;1.82;1.00;;;17.90;99.90;;;;;;1912460;75;21543;-79
2021/08/27 09:35:20;;;;;;;4.80;1.30;;;18.00;99.90;;;;;;1912481;75;21531;-78
2021/08/27 09:37:46;;;;;;;4.22;1.00;;;17.90;99.90;;;;;;1912634;75;21131;-79
2021/08/27 09:40:12;;;;;;;7.40;1.37;;;17.90;99.90;;;;;;1912682;75;21063;-78
2021/08/27 09:42:38;;;;;;;2.00;0.98;;;17.90;99.90;;;;;;1912632;74;21051;-79
2021/08/27 09:45:04;;;;;;;3.60;1.07;;;18.00;99.90;;;;;;1912631;75;21047;-79
2021/08/27 09:47:31;;;;;;;2.58;0.98;;;17.80;99.90;;;;;;1912720;75;21074;-79
2021/08/27 09:49:57;;;;;;;1.22;1.00;;;17.70;99.90;;;;;;1912507;75;21071;-76
2021/08/27 09:52:23;;;;;;;7.10;1.20;;;17.80;99.90;;;;;;1912379;75;21145;-76
2021/08/27 09:54:49;;;;;;;1.60;0.90;;;17.80;99.90;;;;;;1912317;75;21074;-75
2021/08/27 09:57:15;;;;;;;4.72;1.40;;;17.80;99.90;;;;;;1912230;75;21043;-76
2021/08/27 09:59:47;;;;;;;2.27;1.20;;;17.90;99.90;;;;;;1912128;75;21518;-76
2021/08/27 10:02:09;;;;;;;2.30;1.30;;;18.10;99.90;;;;;;1911449;74;21125;-75
2021/08/27 10:04:35;;;;;;;2.98;1.00;;;18.40;99.90;;;;;;1915308;75;21491;-75
2021/08/27 10:07:01;;;;;;;7.45;1.10;;;18.20;99.90;;;;;;1912609;75;21035;-74
2021/08/27 10:09:28;;;;;;;2.95;1.27;;;18.00;99.90;;;;;;1912085;75;21086;-76
2021/08/27 10:11:54;;;;;;;1.80;1.20;;;17.90;99.90;;;;;;1912585;75;21074;-77
2021/08/27 10:14:20;;;;;;;2.75;1.20;;;18.40;99.90;;;;;;1915729;75;21117;-76
2021/08/27 10:16:46;;;;;;;1.10;0.98;;;18.40;99.90;;;;;;1912287;75;21145;-75
2021/08/27 10:19:12;;;;;;;3.47;1.65;;;18.10;99.90;;;;;;1912640;75;21074;-75
2021/08/27 10:21:38;;;;;;;4.10;1.72;;;18.20;99.90;;;;;;1912372;75;21475;-75
2021/08/27 10:24:05;;;;;;;1.92;1.10;;;18.30;99.90;;;;;;1912222;75;21478;-76
2021/08/27 10:26:31;;;;;;;5.95;1.70;;;18.40;99.90;;;;;;1913273;75;21534;-78
2021/08/27 10:28:57;;;;;;;3.15;1.80;;;18.30;99.90;;;;;;1912959;75;21491;-76
2021/08/27 10:31:23;;;;;;;2.60;1.40;;;18.20;99.90;;;;;;1912431;75;21153;-77
2021/08/27 10:33:49;;;;;;;5.65;1.57;;;18.20;99.90;;;;;;1911992;75;21125;-77
2021/08/27 10:36:15;;;;;;;4.20;1.67;;;18.20;99.90;;;;;;1912003;75;21035;-77
2021/08/27 10:38:42;;;;;;;1.87;1.52;;;18.50;99.90;;;;;;1911929;75;21047;-76
2021/08/27 10:41:08;;;;;;;2.72;1.35;;;18.50;99.90;;;;;;1912025;75;21055;-77
2021/08/27 10:43:34;;;;;;;4.72;1.12;;;18.60;99.90;;;;;;1912033;75;21070;-77
2021/08/27 10:46:01;;;;;;;2.60;1.85;;;18.40;99.90;;;;;;1912171;75;21078;-76
2021/08/27 10:48:27;;;;;;;3.58;1.30;;;18.30;99.90;;;;;;1912132;75;21152;-77
2021/08/27 10:50:54;;;;;;;2.87;1.52;;;18.00;99.90;;;;;;1911920;75;21047;-77
2021/08/27 10:53:20;;;;;;;2.98;1.20;;;17.90;99.90;;;;;;1912083;75;21187;-77
2021/08/27 10:55:46;;;;;;;5.78;1.20;;;18.50;99.90;;;;;;1912160;75;21136;-77
2021/08/27 10:58:14;;;;;;;1.62;1.30;;;19.30;99.90;;;;;;1912135;75;21074;-76
2021/08/27 11:00:40;;;;;;;1.80;0.98;;;20.00;99.90;;;;;;1912181;75;21126;-77
2021/08/27 11:03:11;;;;;;;1.37;0.88;;;20.10;99.90;;;;;;1912110;75;21055;-76
2021/08/27 11:05:34;;;;;;;2.35;1.45;;;19.70;99.90;;;;;;1911225;75;21078;-77
2021/08/27 11:08:00;;;;;;;2.90;1.20;;;19.40;99.90;;;;;;1912016;75;21071;-76
2021/08/27 11:10:26;;;;;;;5.20;1.05;;;18.90;99.90;;;;;;1912095;75;21070;-76
2021/08/27 11:12:53;;;;;;;1.85;1.10;;;18.60;99.90;;;;;;1911899;75;21078;-76
2021/08/27 11:15:19;;;;;;;2.27;1.07;;;18.40;99.90;;;;;;1911895;75;21072;-76
2021/08/27 11:17:45;;;;;;;3.42;1.42;;;18.40;99.90;;;;;;1911995;75;21070;-77
2021/08/27 11:20:11;;;;;;;3.47;1.15;;;18.20;99.90;;;;;;1911881;75;21152;-78
2021/08/27 11:22:37;;;;;;;2.50;1.12;;;18.20;99.90;;;;;;1912046;75;21083;-77
2021/08/27 11:25:03;;;;;;;2.67;1.32;;;18.00;99.90;;;;;;1911837;75;21062;-77
2021/08/27 11:27:30;;;;;;;5.00;1.25;;;18.10;99.90;;;;;;1912081;75;21113;-77
2021/08/27 11:30:01;;;;;;;5.30;1.45;;;18.10;99.90;;;;;;1912047;75;21074;-77
2021/08/27 11:32:24;;;;;;;1.80;0.95;;;18.10;99.90;;;;;;1912093;74;21470;-77
2021/08/27 11:34:50;;;;;;;3.10;1.57;;;18.00;99.90;;;;;;1912140;75;21474;-77
2021/08/27 11:37:16;;;;;;;4.35;1.67;;;17.90;99.90;;;;;;1911950;75;21051;-77
2021/08/27 11:39:42;;;;;;;4.97;1.60;;;17.80;99.90;;;;;;1912105;75;21156;-77
2021/08/27 11:42:09;;;;;;;2.45;1.40;;;17.60;99.90;;;;;;1912074;75;21074;-76
2021/08/27 11:44:42;;;;;;;2.05;1.50;;;17.60;99.90;;;;;;1911895;75;21628;-76
2021/08/27 11:47:04;;;;;;;4.58;1.72;;;17.70;99.90;;;;;;1912789;74;21074;-77
2021/08/27 11:49:30;;;;;;;3.52;1.50;;;17.80;99.90;;;;;;1911969;75;21126;-75
2021/08/27 11:51:56;;;;;;;3.15;1.45;;;17.90;99.90;;;;;;1911979;75;21070;-76
2021/08/27 11:54:24;;;;;;;1.60;1.25;;;17.90;99.90;;;;;;1911878;75;21136;-76
2021/08/27 11:56:50;;;;;;;17.45;1.42;;;18.00;99.90;;;;;;1911950;75;21656;-76
2021/08/27 11:59:16;;;;;;;2.65;1.22;;;18.10;99.90;;;;;;1911916;75;21440;-77
2021/08/27 12:01:42;;;;;;;7.08;1.45;;;18.30;99.90;;;;;;1911891;75;21454;-75
2021/08/27 12:04:08;;;;;;;1.95;1.50;;;18.50;99.90;;;;;;1912319;75;21435;-75
2021/08/27 12:06:36;;;;;;;3.98;1.20;;;18.70;99.90;;;;;;1912043;75;21503;-76
2021/08/27 12:09:02;;;;;;;4.40;1.60;;;18.70;99.90;;;;;;1912132;75;21047;-76
2021/08/27 12:11:29;;;;;;;2.33;1.42;;;19.00;99.90;;;;;;1912171;75;21070;-77
2021/08/27 12:13:55;;;;;;;3.35;1.55;;;19.40;99.90;;;;;;1912223;75;21074;-76
2021/08/27 12:16:21;;;;;;;5.40;1.40;;;19.40;99.90;;;;;;1912252;75;21074;-76
2021/08/27 12:18:47;;;;;;;7.25;1.45;;;19.40;99.90;;;;;;1912248;75;21047;-76
2021/08/27 12:21:14;;;;;;;3.65;1.50;;;19.20;99.90;;;;;;1912290;75;21148;-76
2021/08/27 12:23:40;;;;;;;3.12;1.30;;;19.00;99.90;;;;;;1912307;75;21199;-76
2021/08/27 12:26:09;;;;;;;6.28;1.30;;;18.50;99.90;;;;;;1912317;75;21070;-76
2021/08/27 12:28:35;;;;;;;2.80;1.20;;;18.00;99.90;;;;;;1912277;75;21079;-77
2021/08/27 12:31:01;;;;;;;2.40;1.57;;;17.60;99.90;;;;;;1912247;75;21197;-76
2021/08/27 12:33:27;;;;;;;1.72;1.30;;;17.30;99.90;;;;;;1912294;75;21468;-76
2021/08/27 12:35:54;;;;;;;8.80;1.72;;;17.30;99.90;;;;;;1912321;75;21104;-75
2021/08/27 12:38:20;;;;;;;2.58;1.62;;;17.50;99.90;;;;;;1912389;75;21645;-76